sensor_id;sensor_type;location;lat;lon;timestamp;pressure;altitude;pressure_sealevel;temperature;humidity
30682;BME280;17439;48.092;11.842;2022-10-17T00:00:50;96037.09;;;15.13;64.71
30682;BME280;17439;48.092;11.842;2022-10-17T00:03:17;96043.97;;;15.11;64.62
30682;BME280;17439;48.092;11.842;2022-10-17T00:05:45;96035.97;;;15.05;64.64
30682;BME280;17439;48.092;11.842;2022-10-17T00:08:13;96040.16;;;15.03;64.79
30682;BME280;17439;48.092;11.842;2022-10-17T00:10:40;96033.75;;;14.99;64.91
30682;BME280;17439;48.092;11.842;2022-10-17T00:13:09;96028.13;;;14.95;65.14
30682;BME280;17439;48.092;11.842;2022-10-17T00:15:36;96037.78;;;14.93;64.83
30682;BME280;17439;48.092;11.842;2022-10-17T00:18:03;96041.16;;;14.90;65.03
30682;BME280;17439;48.092;11.842;2022-10-17T00:20:29;96045.31;;;14.87;64.94
30682;BME280;17439;48.092;11.842;2022-10-17T00:22:56;96043.22;;;14.84;65.07
30682;BME280;17439;48.092;11.842;2022-10-17T00:25:23;96046.28;;;14.82;65.05
30682;BME280;17439;48.092;11.842;2022-10-17T00:27:49;96048.53;;;14.80;64.98
30682;BME280;17439;48.092;11.842;2022-10-17T00:30:16;96045.34;;;14.78;65.06
30682;BME280;17439;48.092;11.842;2022-10-17T00:32:42;96042.16;;;14.76;65.05
30682;BME280;17439;48.092;11.842;2022-10-17T00:35:09;96051.78;;;14.74;64.90
30682;BME280;17439;48.092;11.842;2022-10-17T00:37:36;96048.25;;;14.73;65.13
30682;BME280;17439;48.092;11.842;2022-10-17T00:40:04;96058.66;;;14.71;64.98
30682;BME280;17439;48.092;11.842;2022-10-17T00:42:31;96051.13;;;14.59;65.47
30682;BME280;17439;48.092;11.842;2022-10-17T00:47:26;96054.50;;;14.65;65.04
30682;BME280;17439;48.092;11.842;2022-10-17T00:49:53;96060.28;;;14.63;65.18
30682;BME280;17439;48.092;11.842;2022-10-17T00:52:24;96057.06;;;14.61;65.31
30682;BME280;17439;48.092;11.842;2022-10-17T00:54:57;96049.22;;;14.60;65.59
30682;BME280;17439;48.092;11.842;2022-10-17T00:57:26;96057.38;;;14.60;65.11
30682;BME280;17439;48.092;11.842;2022-10-17T00:59:56;96057.69;;;14.58;65.13
30682;BME280;17439;48.092;11.842;2022-10-17T01:02:23;96056.41;;;14.47;65.54
30682;BME280;17439;48.092;11.842;2022-10-17T01:04:51;96055.91;;;14.54;65.02
30682;BME280;17439;48.092;11.842;2022-10-17T01:07:19;96055.91;;;14.54;65.05
30682;BME280;17439;48.092;11.842;2022-10-17T01:09:46;96058.97;;;14.52;65.00
30682;BME280;17439;48.092;11.842;2022-10-17T01:15:13;96067.31;;;14.47;65.78
30682;BME280;17439;48.092;11.842;2022-10-17T01:23:50;96064.59;;;14.38;65.27
30682;BME280;17439;48.092;11.842;2022-10-17T01:32:14;96072.75;;;14.29;65.43
30682;BME280;17439;48.092;11.842;2022-10-17T01:35:06;96068.41;;;14.28;65.55
30682;BME280;17439;48.092;11.842;2022-10-17T01:40:32;96062.34;;;14.23;65.13
30682;BME280;17439;48.092;11.842;2022-10-17T01:43:19;96061.84;;;14.21;65.57
30682;BME280;17439;48.092;11.842;2022-10-17T01:45:53;96055.75;;;14.15;65.57
30682;BME280;17439;48.092;11.842;2022-10-17T01:48:29;96060.41;;;14.14;65.38
30682;BME280;17439;48.092;11.842;2022-10-17T01:51:18;96056.69;;;14.10;65.63
30682;BME280;17439;48.092;11.842;2022-10-17T01:53:57;96053.50;;;14.08;65.56
30682;BME280;17439;48.092;11.842;2022-10-17T01:56:29;96053.00;;;14.06;65.25
30682;BME280;17439;48.092;11.842;2022-10-17T01:59:01;96049.00;;;14.04;65.57
30682;BME280;17439;48.092;11.842;2022-10-17T02:01:30;96049.31;;;14.02;65.27
30682;BME280;17439;48.092;11.842;2022-10-17T02:04:00;96048.84;;;14.00;65.27
30682;BME280;17439;48.092;11.842;2022-10-17T02:06:28;96034.69;;;13.98;65.09
30682;BME280;17439;48.092;11.842;2022-10-17T02:08:55;96044.34;;;13.95;65.22
30682;BME280;17439;48.092;11.842;2022-10-17T02:11:23;96043.81;;;13.93;65.10
30682;BME280;17439;48.092;11.842;2022-10-17T02:14:13;96051.84;;;13.90;65.31
30682;BME280;17439;48.092;11.842;2022-10-17T02:22:37;96048.59;;;13.79;65.41
30682;BME280;17439;48.092;11.842;2022-10-17T02:25:12;96051.66;;;13.77;65.02
30682;BME280;17439;48.092;11.842;2022-10-17T02:27:46;96043.00;;;13.75;65.46
30682;BME280;17439;48.092;11.842;2022-10-17T02:30:22;96047.50;;;13.71;65.58
30682;BME280;17439;48.092;11.842;2022-10-17T02:33:10;96053.25;;;13.70;65.17
30682;BME280;17439;48.092;11.842;2022-10-17T02:35:43;96042.66;;;13.68;65.71
30682;BME280;17439;48.092;11.842;2022-10-17T02:38:12;96050.03;;;13.68;65.57
30682;BME280;17439;48.092;11.842;2022-10-17T02:40:42;96044.88;;;13.66;65.69
30682;BME280;17439;48.092;11.842;2022-10-17T02:43:11;96049.53;;;13.66;66.17
30682;BME280;17439;48.092;11.842;2022-10-17T02:45:39;96049.53;;;13.66;66.43
30682;BME280;17439;48.092;11.842;2022-10-17T02:48:11;96046.50;;;13.67;67.26
30682;BME280;17439;48.092;11.842;2022-10-17T02:50:49;96057.09;;;13.69;67.60
30682;BME280;17439;48.092;11.842;2022-10-17T02:53:29;96060.28;;;13.71;67.60
30682;BME280;17439;48.092;11.842;2022-10-17T02:56:01;96062.38;;;13.74;66.91
30682;BME280;17439;48.092;11.842;2022-10-17T02:58:32;96050.38;;;13.75;66.22
30682;BME280;17439;48.092;11.842;2022-10-17T03:01:03;96061.28;;;13.75;66.29
30682;BME280;17439;48.092;11.842;2022-10-17T03:03:31;96055.50;;;13.76;66.00
30682;BME280;17439;48.092;11.842;2022-10-17T03:06:00;96053.91;;;13.75;66.03
30682;BME280;17439;48.092;11.842;2022-10-17T03:08:26;96056.63;;;13.75;66.26
30682;BME280;17439;48.092;11.842;2022-10-17T03:10:54;96054.22;;;13.74;66.46
30682;BME280;17439;48.092;11.842;2022-10-17T03:13:21;96055.03;;;13.74;66.42
30682;BME280;17439;48.092;11.842;2022-10-17T03:15:48;96053.41;;;13.73;66.52
30682;BME280;17439;48.092;11.842;2022-10-17T03:18:15;96054.53;;;13.72;66.76
30682;BME280;17439;48.092;11.842;2022-10-17T03:20:42;96054.53;;;13.72;66.72
30682;BME280;17439;48.092;11.842;2022-10-17T03:23:09;96054.53;;;13.72;66.63
30682;BME280;17439;48.092;11.842;2022-10-17T03:25:35;96053.72;;;13.72;66.59
30682;BME280;17439;48.092;11.842;2022-10-17T03:28:02;96059.97;;;13.72;66.40
30682;BME280;17439;48.092;11.842;2022-10-17T03:30:30;96062.22;;;13.70;66.53
30682;BME280;17439;48.092;11.842;2022-10-17T03:32:57;96055.97;;;13.70;66.63
30682;BME280;17439;48.092;11.842;2022-10-17T03:35:26;96061.44;;;13.70;66.53
30682;BME280;17439;48.092;11.842;2022-10-17T03:37:54;96056.28;;;13.68;66.48
30682;BME280;17439;48.092;11.842;2022-10-17T03:40:22;96059.81;;;13.69;66.37
30682;BME280;17439;48.092;11.842;2022-10-17T03:42:48;96065.25;;;13.69;66.18
30682;BME280;17439;48.092;11.842;2022-10-17T03:45:15;96061.22;;;13.66;66.13
30682;BME280;17439;48.092;11.842;2022-10-17T03:47:42;96070.53;;;13.65;66.16
30682;BME280;17439;48.092;11.842;2022-10-17T03:50:09;96071.66;;;13.64;66.02
30682;BME280;17439;48.092;11.842;2022-10-17T03:52:37;96074.69;;;13.63;66.00
30682;BME280;17439;48.092;11.842;2022-10-17T03:55:04;96069.56;;;13.61;66.13
30682;BME280;17439;48.092;11.842;2022-10-17T03:57:33;96067.16;;;13.59;66.08
30682;BME280;17439;48.092;11.842;2022-10-17T04:00:02;96071.31;;;13.57;66.12
30682;BME280;17439;48.092;11.842;2022-10-17T04:02:39;96071.94;;;13.54;66.02
30682;BME280;17439;48.092;11.842;2022-10-17T04:05:09;96072.25;;;13.52;65.87
30682;BME280;17439;48.092;11.842;2022-10-17T04:07:35;96075.28;;;13.51;65.85
30682;BME280;17439;48.092;11.842;2022-10-17T04:10:03;96074.00;;;13.48;65.82
30682;BME280;17439;48.092;11.842;2022-10-17T04:12:31;96070.72;;;13.37;66.34
30682;BME280;17439;48.092;11.842;2022-10-17T04:14:58;96080.69;;;13.42;65.72
30682;BME280;17439;48.092;11.842;2022-10-17T04:17:24;96081.81;;;13.41;65.73
30682;BME280;17439;48.092;11.842;2022-10-17T04:19:51;96088.69;;;13.38;65.72
30682;BME280;17439;48.092;11.842;2022-10-17T04:22:18;96090.09;;;13.36;65.90
30682;BME280;17439;48.092;11.842;2022-10-17T04:24:45;96086.09;;;13.33;65.87
30682;BME280;17439;48.092;11.842;2022-10-17T04:27:22;96094.06;;;13.30;65.81
30682;BME280;17439;48.092;11.842;2022-10-17T04:29:49;96097.91;;;13.29;65.79
30682;BME280;17439;48.092;11.842;2022-10-17T04:32:20;96100.13;;;13.27;65.76
30682;BME280;17439;48.092;11.842;2022-10-17T04:34:53;96095.31;;;13.23;65.65
30682;BME280;17439;48.092;11.842;2022-10-17T04:37:21;96089.34;;;13.13;65.79
30682;BME280;17439;48.092;11.842;2022-10-17T04:39:49;96083.75;;;13.18;65.60
30682;BME280;17439;48.092;11.842;2022-10-17T04:42:16;96083.75;;;13.18;65.58
30682;BME280;17439;48.092;11.842;2022-10-17T04:44:42;96094.94;;;13.16;65.56
30682;BME280;17439;48.092;11.842;2022-10-17T04:47:09;96092.84;;;13.13;65.65
30682;BME280;17439;48.092;11.842;2022-10-17T04:49:37;96096.16;;;13.01;66.34
30682;BME280;17439;48.092;11.842;2022-10-17T04:52:08;96098.75;;;13.06;65.71
30682;BME280;17439;48.092;11.842;2022-10-17T04:54:43;96092.81;;;13.04;65.69
30682;BME280;17439;48.092;11.842;2022-10-17T04:57:12;96095.53;;;13.04;65.78
30682;BME280;17439;48.092;11.842;2022-10-17T04:59:40;96094.22;;;13.02;65.76
30682;BME280;17439;48.092;11.842;2022-10-17T05:02:15;96101.91;;;13.00;65.85
30682;BME280;17439;48.092;11.842;2022-10-17T05:04:43;96095.91;;;12.89;66.42
30682;BME280;17439;48.092;11.842;2022-10-17T05:07:11;96093.06;;;12.94;65.76
30682;BME280;17439;48.092;11.842;2022-10-17T05:09:43;96104.72;;;12.95;65.73
30682;BME280;17439;48.092;11.842;2022-10-17T05:12:10;96105.03;;;12.93;65.76
30682;BME280;17439;48.092;11.842;2022-10-17T05:14:41;96098.31;;;12.91;65.81
30682;BME280;17439;48.092;11.842;2022-10-17T05:17:07;96108.41;;;12.90;65.92
30682;BME280;17439;48.092;11.842;2022-10-17T05:19:34;96107.88;;;12.88;65.79
30682;BME280;17439;48.092;11.842;2022-10-17T05:22:00;96117.97;;;12.87;65.59
30682;BME280;17439;48.092;11.842;2022-10-17T05:24:27;96118.59;;;12.84;65.59
30682;BME280;17439;48.092;11.842;2022-10-17T05:26:54;96118.41;;;12.81;65.59
30682;BME280;17439;48.092;11.842;2022-10-17T05:29:21;96120.31;;;12.80;65.56
30682;BME280;17439;48.092;11.842;2022-10-17T05:31:53;96122.06;;;12.76;65.47
30682;BME280;17439;48.092;11.842;2022-10-17T05:34:19;96131.31;;;12.75;65.56
30682;BME280;17439;48.092;11.842;2022-10-17T05:36:46;96131.16;;;12.72;65.59
30682;BME280;17439;48.092;11.842;2022-10-17T05:39:16;96136.88;;;12.70;65.58
30682;BME280;17439;48.092;11.842;2022-10-17T05:41:43;96139.91;;;12.68;65.62
30682;BME280;17439;48.092;11.842;2022-10-17T05:44:09;96136.72;;;12.66;65.55
30682;BME280;17439;48.092;11.842;2022-10-17T05:46:39;96134.28;;;12.65;65.69
30682;BME280;17439;48.092;11.842;2022-10-17T05:49:09;96140.03;;;12.63;65.66
30682;BME280;17439;48.092;11.842;2022-10-17T05:51:56;96142.75;;;12.63;65.92
30682;BME280;17439;48.092;11.842;2022-10-17T05:54:24;96144.66;;;12.63;66.06
30682;BME280;17439;48.092;11.842;2022-10-17T05:56:52;96152.81;;;12.63;66.04
30682;BME280;17439;48.092;11.842;2022-10-17T05:59:25;96154.44;;;12.64;66.23
30682;BME280;17439;48.092;11.842;2022-10-17T06:01:56;96157.94;;;12.64;66.14
30682;BME280;17439;48.092;11.842;2022-10-17T06:04:23;96166.13;;;12.64;66.37
30682;BME280;17439;48.092;11.842;2022-10-17T06:06:50;96159.56;;;12.65;66.29
30682;BME280;17439;48.092;11.842;2022-10-17T06:09:16;96158.47;;;12.66;66.33
30682;BME280;17439;48.092;11.842;2022-10-17T06:11:46;96169.84;;;12.68;66.20
30682;BME280;17439;48.092;11.842;2022-10-17T06:14:13;96173.34;;;12.69;66.25
30682;BME280;17439;48.092;11.842;2022-10-17T06:16:40;96168.75;;;12.69;66.32
30682;BME280;17439;48.092;11.842;2022-10-17T06:19:08;96176.59;;;12.71;66.29
30682;BME280;17439;48.092;11.842;2022-10-17T06:21:34;96167.78;;;12.74;66.33
30682;BME280;17439;48.092;11.842;2022-10-17T06:24:06;96173.56;;;12.73;66.34
30682;BME280;17439;48.092;11.842;2022-10-17T06:26:35;96178.38;;;12.76;66.27
30682;BME280;17439;48.092;11.842;2022-10-17T06:29:04;96178.88;;;12.78;66.27
30682;BME280;17439;48.092;11.842;2022-10-17T06:31:35;96182.09;;;12.80;66.19
30682;BME280;17439;48.092;11.842;2022-10-17T06:34:01;96185.31;;;12.82;66.32
30682;BME280;17439;48.092;11.842;2022-10-17T06:36:28;96191.28;;;12.84;66.55
30682;BME280;17439;48.092;11.842;2022-10-17T06:38:55;96196.41;;;12.85;66.52
30682;BME280;17439;48.092;11.842;2022-10-17T06:41:30;96195.78;;;12.88;66.65
30682;BME280;17439;48.092;11.842;2022-10-17T06:44:02;96205.25;;;12.91;66.65
30682;BME280;17439;48.092;11.842;2022-10-17T06:46:43;96203.53;;;12.95;66.75
30682;BME280;17439;48.092;11.842;2022-10-17T06:49:13;96199.38;;;12.98;66.82
30682;BME280;17439;48.092;11.842;2022-10-17T06:51:49;96194.13;;;13.01;66.96
30682;BME280;17439;48.092;11.842;2022-10-17T06:54:19;96202.47;;;13.05;66.87
30682;BME280;17439;48.092;11.842;2022-10-17T06:56:48;96204.28;;;13.10;66.85
30682;BME280;17439;48.092;11.842;2022-10-17T06:59:35;96202.03;;;13.12;66.89
30682;BME280;17439;48.092;11.842;2022-10-17T07:02:09;96210.91;;;13.17;67.18
30682;BME280;17439;48.092;11.842;2022-10-17T07:04:37;96214.91;;;13.20;67.35
30682;BME280;17439;48.092;11.842;2022-10-17T07:07:03;96212.06;;;13.25;67.38
30682;BME280;17439;48.092;11.842;2022-10-17T07:09:32;96214.69;;;13.30;67.67
30682;BME280;17439;48.092;11.842;2022-10-17T07:11:59;96214.59;;;13.35;67.81
30682;BME280;17439;48.092;11.842;2022-10-17T07:14:25;96212.56;;;13.41;67.96
30682;BME280;17439;48.092;11.842;2022-10-17T07:16:52;96216.72;;;13.47;68.28
30682;BME280;17439;48.092;11.842;2022-10-17T07:19:22;96208.47;;;13.52;68.54
30682;BME280;17439;48.092;11.842;2022-10-17T07:21:49;96216.66;;;13.61;68.48
30682;BME280;17439;48.092;11.842;2022-10-17T07:24:16;96217.84;;;13.69;68.47
30682;BME280;17439;48.092;11.842;2022-10-17T07:26:54;96221.72;;;13.76;68.70
30682;BME280;17439;48.092;11.842;2022-10-17T07:29:21;96220.97;;;13.85;68.86
30682;BME280;17439;48.092;11.842;2022-10-17T07:31:55;96229.16;;;13.93;68.92
30682;BME280;17439;48.092;11.842;2022-10-17T07:34:21;96226.97;;;14.04;68.95
30682;BME280;17439;48.092;11.842;2022-10-17T07:36:48;96221.91;;;14.11;69.11
30682;BME280;17439;48.092;11.842;2022-10-17T07:39:15;96223.53;;;14.21;69.09
30682;BME280;17439;48.092;11.842;2022-10-17T07:41:41;96219.72;;;14.31;69.19
30682;BME280;17439;48.092;11.842;2022-10-17T07:44:09;96227.13;;;14.39;69.06
30682;BME280;17439;48.092;11.842;2022-10-17T07:46:41;96236.13;;;14.48;69.09
30682;BME280;17439;48.092;11.842;2022-10-17T07:49:08;96236.16;;;14.57;69.05
30682;BME280;17439;48.092;11.842;2022-10-17T07:51:34;96233.47;;;14.66;69.14
30682;BME280;17439;48.092;11.842;2022-10-17T07:54:01;96228.84;;;14.75;69.19
30682;BME280;17439;48.092;11.842;2022-10-17T07:56:28;96229.16;;;14.82;69.19
30682;BME280;17439;48.092;11.842;2022-10-17T07:58:56;96231.59;;;14.93;69.25
30682;BME280;17439;48.092;11.842;2022-10-17T08:01:42;96243.63;;;14.92;69.59
30682;BME280;17439;48.092;11.842;2022-10-17T08:04:09;96246.38;;;15.09;69.17
30682;BME280;17439;48.092;11.842;2022-10-17T08:06:35;96235.16;;;15.19;69.38
30682;BME280;17439;48.092;11.842;2022-10-17T08:09:02;96240.28;;;15.30;69.42
30682;BME280;17439;48.092;11.842;2022-10-17T08:11:29;96245.44;;;15.40;69.56
30682;BME280;17439;48.092;11.842;2022-10-17T08:13:55;96241.88;;;15.48;69.67
30682;BME280;17439;48.092;11.842;2022-10-17T08:16:22;96243.47;;;15.58;69.62
30682;BME280;17439;48.092;11.842;2022-10-17T08:18:48;96245.84;;;15.68;69.57
30682;BME280;17439;48.092;11.842;2022-10-17T08:21:15;96250.25;;;15.78;69.85
30682;BME280;17439;48.092;11.842;2022-10-17T08:23:41;96248.25;;;15.87;69.68
30682;BME280;17439;48.092;11.842;2022-10-17T08:26:09;96258.88;;;15.98;69.59
30682;BME280;17439;48.092;11.842;2022-10-17T08:28:37;96267.84;;;16.07;69.28
30682;BME280;17439;48.092;11.842;2022-10-17T08:31:11;96256.91;;;16.07;68.93
30682;BME280;17439;48.092;11.842;2022-10-17T08:33:39;96252.97;;;16.25;69.23
30682;BME280;17439;48.092;11.842;2022-10-17T08:36:07;96244.41;;;16.36;69.09
30682;BME280;17439;48.092;11.842;2022-10-17T08:38:35;96246.78;;;16.46;68.65
30682;BME280;17439;48.092;11.842;2022-10-17T08:44:18;96241.34;;;16.67;66.88
30682;BME280;17439;48.092;11.842;2022-10-17T08:46:49;96243.84;;;16.81;67.50
30682;BME280;17439;48.092;11.842;2022-10-17T08:49:43;96244.63;;;16.90;66.59
30682;BME280;17439;48.092;11.842;2022-10-17T08:52:19;96238.41;;;17.02;66.12
30682;BME280;17439;48.092;11.842;2022-10-17T08:54:48;96242.72;;;17.12;67.16
30682;BME280;17439;48.092;11.842;2022-10-17T08:57:16;96238.44;;;17.23;66.99
30682;BME280;17439;48.092;11.842;2022-10-17T08:59:43;96235.28;;;17.33;66.55
30682;BME280;17439;48.092;11.842;2022-10-17T09:07:27;96230.16;;;17.65;64.28
30682;BME280;17439;48.092;11.842;2022-10-17T09:10:11;96235.69;;;17.77;62.20
30682;BME280;17439;48.092;11.842;2022-10-17T09:15:39;96239.44;;;18.06;62.98
30682;BME280;17439;48.092;11.842;2022-10-17T09:18:21;96236.84;;;18.22;62.11
30682;BME280;17439;48.092;11.842;2022-10-17T09:20:54;96236.16;;;18.38;61.92
30682;BME280;17439;48.092;11.842;2022-10-17T09:23:30;96238.56;;;18.52;60.79
30682;BME280;17439;48.092;11.842;2022-10-17T09:26:00;96240.97;;;18.65;62.85
30682;BME280;17439;48.092;11.842;2022-10-17T09:28:32;96235.47;;;18.78;60.62
30682;BME280;17439;48.092;11.842;2022-10-17T09:31:06;96239.03;;;18.91;59.95
30682;BME280;17439;48.092;11.842;2022-10-17T09:33:46;96242.22;;;18.93;62.88
30682;BME280;17439;48.092;11.842;2022-10-17T09:38:53;96239.78;;;19.28;61.00
30682;BME280;17439;48.092;11.842;2022-10-17T09:41:23;96240.06;;;19.39;60.51
30682;BME280;17439;48.092;11.842;2022-10-17T09:47:01;96238.63;;;19.57;59.74
30682;BME280;17439;48.092;11.842;2022-10-17T09:49:36;96242.81;;;19.67;60.25
30682;BME280;17439;48.092;11.842;2022-10-17T09:52:09;96239.09;;;19.75;59.46
30682;BME280;17439;48.092;11.842;2022-10-17T09:54:43;96244.84;;;19.83;58.39
30682;BME280;17439;48.092;11.842;2022-10-17T09:57:11;96230.91;;;19.91;59.93
30682;BME280;17439;48.092;11.842;2022-10-17T09:59:39;96243.78;;;19.87;57.03
30682;BME280;17439;48.092;11.842;2022-10-17T10:02:15;96237.16;;;20.04;59.40
30682;BME280;17439;48.092;11.842;2022-10-17T10:05:01;96242.50;;;20.13;57.04
30682;BME280;17439;48.092;11.842;2022-10-17T10:07:35;96253.31;;;20.22;57.15
30682;BME280;17439;48.092;11.842;2022-10-17T10:10:06;96253.16;;;20.30;56.88
30682;BME280;17439;48.092;11.842;2022-10-17T10:12:36;96249.78;;;20.37;57.34
30682;BME280;17439;48.092;11.842;2022-10-17T10:15:29;96252.75;;;20.44;57.14
30682;BME280;17439;48.092;11.842;2022-10-17T10:17:56;96249.78;;;20.53;57.94
30682;BME280;17439;48.092;11.842;2022-10-17T10:20:32;96244.47;;;20.60;56.53
30682;BME280;17439;48.092;11.842;2022-10-17T10:23:13;96252.56;;;20.69;55.08
30682;BME280;17439;48.092;11.842;2022-10-17T10:25:57;96243.66;;;20.76;56.24
30682;BME280;17439;48.092;11.842;2022-10-17T10:28:31;96245.09;;;20.86;55.69
30682;BME280;17439;48.092;11.842;2022-10-17T10:31:05;96246.03;;;20.93;54.39
30682;BME280;17439;48.092;11.842;2022-10-17T10:33:35;96239.09;;;20.99;54.76
30682;BME280;17439;48.092;11.842;2022-10-17T10:36:07;96235.72;;;21.06;55.75
30682;BME280;17439;48.092;11.842;2022-10-17T10:38:34;96242.16;;;21.14;56.05
30682;BME280;17439;48.092;11.842;2022-10-17T10:41:07;96242.75;;;21.23;55.47
30682;BME280;17439;48.092;11.842;2022-10-17T10:43:47;96240.16;;;21.30;54.04
30682;BME280;17439;48.092;11.842;2022-10-17T10:46:20;96242.34;;;21.41;54.71
30682;BME280;17439;48.092;11.842;2022-10-17T10:48:59;96248.03;;;21.48;53.80
30682;BME280;17439;48.092;11.842;2022-10-17T10:51:38;96238.75;;;21.56;53.48
30682;BME280;17439;48.092;11.842;2022-10-17T10:54:15;96249.19;;;21.66;54.58
30682;BME280;17439;48.092;11.842;2022-10-17T10:56:49;96242.22;;;21.72;53.50
30682;BME280;17439;48.092;11.842;2022-10-17T10:59:23;96238.00;;;21.79;53.46
30682;BME280;17439;48.092;11.842;2022-10-17T11:02:00;96255.94;;;21.88;53.51
30682;BME280;17439;48.092;11.842;2022-10-17T11:04:41;96253.69;;;21.94;50.61
30682;BME280;17439;48.092;11.842;2022-10-17T11:07:20;96243.22;;;22.03;52.38
30682;BME280;17439;48.092;11.842;2022-10-17T11:10:13;96242.59;;;22.14;53.08
30682;BME280;17439;48.092;11.842;2022-10-17T11:12:47;96235.19;;;22.18;52.11
30682;BME280;17439;48.092;11.842;2022-10-17T11:15:25;96240.47;;;22.26;51.76
30682;BME280;17439;48.092;11.842;2022-10-17T11:18:06;96238.22;;;22.32;50.36
30682;BME280;17439;48.092;11.842;2022-10-17T11:25:44;96240.38;;;22.42;51.37
30682;BME280;17439;48.092;11.842;2022-10-17T11:28:17;96240.50;;;22.50;50.09
30682;BME280;17439;48.092;11.842;2022-10-17T11:30:53;96244.59;;;22.59;49.48
30682;BME280;17439;48.092;11.842;2022-10-17T11:33:51;96244.22;;;22.61;49.69
30682;BME280;17439;48.092;11.842;2022-10-17T11:36:23;96238.50;;;22.73;48.01
30682;BME280;17439;48.092;11.842;2022-10-17T11:41:30;96238.25;;;22.82;49.01
30682;BME280;17439;48.092;11.842;2022-10-17T11:44:11;96233.22;;;22.88;48.16
30682;BME280;17439;48.092;11.842;2022-10-17T11:46:42;96235.63;;;22.93;47.36
30682;BME280;17439;48.092;11.842;2022-10-17T11:49:35;96232.88;;;22.93;48.35
30682;BME280;17439;48.092;11.842;2022-10-17T11:52:30;96235.63;;;22.93;48.81
30682;BME280;17439;48.092;11.842;2022-10-17T11:55:25;96238.88;;;22.98;49.59
30682;BME280;17439;48.092;11.842;2022-10-17T12:03:56;96233.94;;;23.11;48.86
30682;BME280;17439;48.092;11.842;2022-10-17T12:07:07;96228.53;;;23.18;47.84
30682;BME280;17439;48.092;11.842;2022-10-17T12:09:46;96235.75;;;23.27;45.90
30682;BME280;17439;48.092;11.842;2022-10-17T12:12:27;96229.84;;;23.28;46.49
30682;BME280;17439;48.092;11.842;2022-10-17T12:17:54;96229.56;;;23.37;48.28
30682;BME280;17439;48.092;11.842;2022-10-17T12:27:49;96226.69;;;23.60;45.92
30682;BME280;17439;48.092;11.842;2022-10-17T12:30:24;96220.41;;;23.63;45.63
30682;BME280;17439;48.092;11.842;2022-10-17T12:32:55;96223.63;;;23.69;46.06
30682;BME280;17439;48.092;11.842;2022-10-17T12:35:33;96223.25;;;23.70;46.34
30682;BME280;17439;48.092;11.842;2022-10-17T12:38:23;96219.34;;;23.75;46.04
30682;BME280;17439;48.092;11.842;2022-10-17T12:40:53;96214.22;;;23.77;46.87
30682;BME280;17439;48.092;11.842;2022-10-17T12:45:55;96213.88;;;23.82;47.22
30682;BME280;17439;48.092;11.842;2022-10-17T12:54:13;96209.69;;;23.96;46.22
30682;BME280;17439;48.092;11.842;2022-10-17T12:56:44;96206.22;;;24.02;46.58
30682;BME280;17439;48.092;11.842;2022-10-17T12:59:16;96209.44;;;24.08;46.31
30682;BME280;17439;48.092;11.842;2022-10-17T13:01:47;96207.91;;;24.14;47.69
30682;BME280;17439;48.092;11.842;2022-10-17T13:04:15;96208.00;;;24.21;47.34
30682;BME280;17439;48.092;11.842;2022-10-17T13:06:45;96207.22;;;24.24;45.83
30682;BME280;17439;48.092;11.842;2022-10-17T13:09:30;96214.38;;;24.29;44.51
30682;BME280;17439;48.092;11.842;2022-10-17T13:12:03;96204.91;;;24.34;44.48
30682;BME280;17439;48.092;11.842;2022-10-17T13:14:32;96205.38;;;24.39;46.06
30682;BME280;17439;48.092;11.842;2022-10-17T13:17:04;96207.38;;;24.42;43.83
30682;BME280;17439;48.092;11.842;2022-10-17T13:19:42;96201.84;;;24.46;45.50
30682;BME280;17439;48.092;11.842;2022-10-17T13:22:17;96209.81;;;24.51;46.08
30682;BME280;17439;48.092;11.842;2022-10-17T13:24:44;96209.84;;;24.55;46.31
30682;BME280;17439;48.092;11.842;2022-10-17T13:29:50;96212.31;;;24.63;46.10
30682;BME280;17439;48.092;11.842;2022-10-17T13:32:17;96208.78;;;24.67;46.11
30682;BME280;17439;48.092;11.842;2022-10-17T13:34:44;96207.59;;;24.68;45.39
30682;BME280;17439;48.092;11.842;2022-10-17T13:37:13;96211.56;;;24.70;45.66
30682;BME280;17439;48.092;11.842;2022-10-17T13:39:43;96209.22;;;24.72;45.58
30682;BME280;17439;48.092;11.842;2022-10-17T13:42:30;96212.41;;;24.74;43.80
30682;BME280;17439;48.092;11.842;2022-10-17T13:45:01;96199.75;;;24.77;45.26
30682;BME280;17439;48.092;11.842;2022-10-17T13:47:33;96209.25;;;24.79;43.87
30682;BME280;17439;48.092;11.842;2022-10-17T13:50:03;96207.72;;;24.82;44.43
30682;BME280;17439;48.092;11.842;2022-10-17T13:52:46;96197.03;;;24.84;45.39
30682;BME280;17439;48.092;11.842;2022-10-17T13:55:15;96210.88;;;24.84;44.81
30682;BME280;17439;48.092;11.842;2022-10-17T13:57:43;96199.41;;;24.86;45.52
30682;BME280;17439;48.092;11.842;2022-10-17T14:00:18;96206.13;;;24.85;43.92
30682;BME280;17439;48.092;11.842;2022-10-17T14:02:45;96201.41;;;24.85;45.51
30682;BME280;17439;48.092;11.842;2022-10-17T14:05:15;96204.16;;;24.85;44.88
30682;BME280;17439;48.092;11.842;2022-10-17T14:07:55;96206.50;;;24.83;43.58
30682;BME280;17439;48.092;11.842;2022-10-17T14:10:43;96198.19;;;24.83;45.45
30682;BME280;17439;48.092;11.842;2022-10-17T14:13:27;96202.16;;;24.82;44.39
30682;BME280;17439;48.092;11.842;2022-10-17T14:15:55;96200.56;;;24.81;45.11
30682;BME280;17439;48.092;11.842;2022-10-17T14:18:30;96201.72;;;24.80;43.28
30682;BME280;17439;48.092;11.842;2022-10-17T14:21:03;96203.31;;;24.77;45.34
30682;BME280;17439;48.092;11.842;2022-10-17T14:23:51;96207.66;;;24.75;45.05
30682;BME280;17439;48.092;11.842;2022-10-17T14:26:21;96202.09;;;24.71;44.42
30682;BME280;17439;48.092;11.842;2022-10-17T14:29:01;96203.63;;;24.69;45.37
30682;BME280;17439;48.092;11.842;2022-10-17T14:31:32;96205.59;;;24.65;43.76